Current Weather

Rockford Greater Rockford Ap

Rockford Greater Rockford Ap, Illinois (KRFD)

Report from: Thursday, May 19, 2022 12:54 PM CDT
Current time: Thursday, May 19, 2022 1:26 PM CDT

Nearby weather
Weather history
Weather forecast

Temperature25.6°C (78.1°F)
Dew point15.6°C (60.1°F)
Winds 6 kts (3.1 m/s, 6.9 mph) Northwest (320°)
Visibility10 mi. (16.1 km)
Clouds Ceiling: Broken clouds 11,000 ft. (3,353 m)
Overcast 25,000 ft. (7,620 m)
Altimeter29.64 in.Hg (1004 mB)
Relative humidity54 %
Density altitude1,792 ft. (546 m)
Sea-level pressure100.3 kPa (1003 mB, 29.63 in.Hg)
Max temp last 6 hours26.1°C (79.0°F)
Min temp last 6 hours15.0°C (59.0°F)
Remarks Automated weather observing station with precipitation discriminator
Pressure falling, then rising
Flight conditions Visual Meteorological Conditions
Raw dataKRFD 191754Z 32006KT 10SM BKN110 OVC250 26/16 A2964 RMK AO2 SLP034 T02560156 10261 20150 55015
An error has occurred. This application may no longer respond until reloaded. Reload 🗙